Airfield :
LOGIN :

Register | Disclaimer

   EN    FR    IT 

 










Legend :    VFR   Marginal VFR   IFR   Intensive IFR   Very Intensive IFR
Visi :
Ceiling :
>= 8 km
>= 3000ft
5 to 8 km
1000 to 3000 ft
1500m to 5 km
500 to 1000 ft
800 to 1500m
200 to 500 ft
< 800m
< 200 ft
Symbols :   Thunderstorms  Fog  Heavy snow  Heavy precipitations  Wind > 20 kt
SIGMETs :     Misc.  Thunderstorms  Icing  Turbulence  Mountain Waves  Volcanic Ashes






- Airport Elevation : 257 ft
- IATA code : MAN


EGCC - Manchester

CURRENT METAR :
  • 300050Z AUTO 28007KT 9999 BKN014 OVC026 12/10 Q1008 TEMPO BKN015

EXPIRED METARs :
  • 300020Z AUTO 28003KT 9999 BKN015 OVC021 11/09 Q1009 TEMPO BKN014
  • 292350Z AUTO 26007KT 9999 FEW023 11/09 Q1009
  • 292320Z AUTO 27007KT 9999 FEW017 11/09 Q1009
  • 292250Z AUTO 27007KT 9999 FEW018 12/09 Q1009
  • 292220Z AUTO 27007KT 9999 NCD 12/09 Q1009
  • 292150Z AUTO 29007KT 9999 FEW018 12/09 Q1009
  • 292120Z AUTO 27006KT 9999 FEW019 12/10 Q1009
  • 292050Z AUTO 27006KT 9999 FEW019 12/10 Q1009
  • 292020Z AUTO 28008KT 9999 NCD 13/10 Q1009

TAF TAF EGCC
Valid from the 30 at 00:00 until the 31 at 06:00 UTC


292302Z 3000/3106 29010KT 9999 SCT025
TEMPO 3000/3009 BKN014
PROB30
TEMPO 3002/3006 8000 -SHRA
PROB30
TEMPO 3006/3009 6000 RA SHRA BKN008
PROB30
TEMPO 3009/3018 7000 SHRA
PROB30
TEMPO 3014/3018 31016G26KT
BECMG 3021/3024 35005KT
ATIS : +44 161 499 2324



MET'MAP, your aeronautical weather chart ! - Copyright ORBIFLY December 2007 - Disclaimer

ORBIFLY MET'MAP TEAM :

Programming & Development : Alexandra Zaïnal
Original concept : Baudouin d'Aumeries
Technical & hardware support : Manuel Goepfert
Assistance : Marc-Olivier Méhu




SOURCES & CREDITS :

   NOAA